sensor_id;sensor_type;location;lat;lon;timestamp;P1;durP1;ratioP1;P2;durP2;ratioP2
20241;SDS011;10279;46.388;8.116;2022-12-29T00:00:05;1.20;;;1.10;;
20241;SDS011;10279;46.388;8.116;2022-12-29T00:02:33;1.10;;;0.80;;
20241;SDS011;10279;46.388;8.116;2022-12-29T00:05:01;1.10;;;1.00;;
20241;SDS011;10279;46.388;8.116;2022-12-29T00:07:28;0.97;;;0.70;;
20241;SDS011;10279;46.388;8.116;2022-12-29T00:09:56;1.83;;;1.00;;
20241;SDS011;10279;46.388;8.116;2022-12-29T00:12:23;1.60;;;1.10;;
20241;SDS011;10279;46.388;8.116;2022-12-29T00:14:51;0.80;;;0.80;;
20241;SDS011;10279;46.388;8.116;2022-12-29T00:17:37;1.17;;;1.07;;
20241;SDS011;10279;46.388;8.116;2022-12-29T00:20:04;3.37;;;1.00;;
20241;SDS011;10279;46.388;8.116;2022-12-29T00:22:50;2.20;;;0.80;;
20241;SDS011;10279;46.388;8.116;2022-12-29T00:25:37;1.80;;;1.30;;
20241;SDS011;10279;46.388;8.116;2022-12-29T00:28:23;1.10;;;0.80;;
20241;SDS011;10279;46.388;8.116;2022-12-29T00:31:11;1.30;;;0.97;;
20241;SDS011;10279;46.388;8.116;2022-12-29T00:33:57;1.37;;;1.00;;
20241;SDS011;10279;46.388;8.116;2022-12-29T00:36:43;1.30;;;1.20;;
20241;SDS011;10279;46.388;8.116;2022-12-29T00:39:15;1.50;;;1.20;;
20241;SDS011;10279;46.388;8.116;2022-12-29T00:42:03;1.23;;;1.00;;
20241;SDS011;10279;46.388;8.116;2022-12-29T00:45:06;1.10;;;1.00;;
20241;SDS011;10279;46.388;8.116;2022-12-29T00:47:33;1.10;;;0.80;;
20241;SDS011;10279;46.388;8.116;2022-12-29T00:50:01;2.23;;;1.50;;
20241;SDS011;10279;46.388;8.116;2022-12-29T00:52:28;1.53;;;1.10;;
20241;SDS011;10279;46.388;8.116;2022-12-29T00:54:59;2.30;;;1.10;;
20241;SDS011;10279;46.388;8.116;2022-12-29T00:57:26;1.20;;;1.00;;
20241;SDS011;10279;46.388;8.116;2022-12-29T00:59:53;1.23;;;1.03;;
20241;SDS011;10279;46.388;8.116;2022-12-29T01:02:21;2.07;;;1.07;;
20241;SDS011;10279;46.388;8.116;2022-12-29T01:04:48;1.53;;;1.20;;
20241;SDS011;10279;46.388;8.116;2022-12-29T01:07:16;0.97;;;0.83;;
20241;SDS011;10279;46.388;8.116;2022-12-29T01:09:43;1.73;;;1.20;;
20241;SDS011;10279;46.388;8.116;2022-12-29T01:12:33;1.47;;;1.10;;
20241;SDS011;10279;46.388;8.116;2022-12-29T01:15:07;1.00;;;0.90;;
20241;SDS011;10279;46.388;8.116;2022-12-29T01:17:35;1.43;;;1.00;;
20241;SDS011;10279;46.388;8.116;2022-12-29T01:20:03;2.27;;;1.17;;
20241;SDS011;10279;46.388;8.116;2022-12-29T01:22:31;1.33;;;1.00;;
20241;SDS011;10279;46.388;8.116;2022-12-29T01:24:59;1.50;;;1.07;;
20241;SDS011;10279;46.388;8.116;2022-12-29T01:27:26;1.47;;;1.07;;
20241;SDS011;10279;46.388;8.116;2022-12-29T01:29:53;1.20;;;0.97;;
20241;SDS011;10279;46.388;8.116;2022-12-29T01:32:21;0.90;;;0.90;;
20241;SDS011;10279;46.388;8.116;2022-12-29T01:34:48;1.10;;;0.90;;
20241;SDS011;10279;46.388;8.116;2022-12-29T01:37:16;1.30;;;1.07;;
20241;SDS011;10279;46.388;8.116;2022-12-29T01:39:43;0.97;;;0.80;;
20241;SDS011;10279;46.388;8.116;2022-12-29T01:42:17;1.03;;;0.90;;
20241;SDS011;10279;46.388;8.116;2022-12-29T01:44:52;0.80;;;0.70;;
20241;SDS011;10279;46.388;8.116;2022-12-29T01:47:36;1.03;;;0.70;;
20241;SDS011;10279;46.388;8.116;2022-12-29T01:53:09;0.90;;;0.70;;
20241;SDS011;10279;46.388;8.116;2022-12-29T01:55:39;1.87;;;0.83;;
20241;SDS011;10279;46.388;8.116;2022-12-29T01:58:07;1.23;;;0.90;;
20241;SDS011;10279;46.388;8.116;2022-12-29T02:00:35;1.00;;;0.90;;
20241;SDS011;10279;46.388;8.116;2022-12-29T02:03:04;1.10;;;0.70;;
20241;SDS011;10279;46.388;8.116;2022-12-29T02:08:00;1.53;;;0.90;;
20241;SDS011;10279;46.388;8.116;2022-12-29T02:10:28;0.97;;;0.87;;
20241;SDS011;10279;46.388;8.116;2022-12-29T02:12:57;0.73;;;0.70;;
20241;SDS011;10279;46.388;8.116;2022-12-29T02:15:32;0.83;;;0.70;;
20241;SDS011;10279;46.388;8.116;2022-12-29T02:20:50;2.07;;;0.90;;
20241;SDS011;10279;46.388;8.116;2022-12-29T02:26:23;0.87;;;0.73;;
20241;SDS011;10279;46.388;8.116;2022-12-29T02:36:46;0.87;;;0.70;;
20241;SDS011;10279;46.388;8.116;2022-12-29T02:49:33;0.83;;;0.70;;
20241;SDS011;10279;46.388;8.116;2022-12-29T02:52:25;1.37;;;0.70;;
20241;SDS011;10279;46.388;8.116;2022-12-29T02:54:53;1.43;;;0.90;;
20241;SDS011;10279;46.388;8.116;2022-12-29T02:59:48;1.53;;;1.00;;
20241;SDS011;10279;46.388;8.116;2022-12-29T03:07:21;0.97;;;0.90;;
20241;SDS011;10279;46.388;8.116;2022-12-29T03:09:56;0.60;;;0.50;;
20241;SDS011;10279;46.388;8.116;2022-12-29T03:15:14;1.40;;;0.80;;
20241;SDS011;10279;46.388;8.116;2022-12-29T03:18:02;1.30;;;0.93;;
20241;SDS011;10279;46.388;8.116;2022-12-29T03:20:41;0.70;;;0.70;;
20241;SDS011;10279;46.388;8.116;2022-12-29T03:23:11;0.73;;;0.63;;
20241;SDS011;10279;46.388;8.116;2022-12-29T03:25:41;1.20;;;0.80;;
20241;SDS011;10279;46.388;8.116;2022-12-29T03:28:11;1.43;;;1.10;;
20241;SDS011;10279;46.388;8.116;2022-12-29T03:30:39;0.63;;;0.63;;
20241;SDS011;10279;46.388;8.116;2022-12-29T03:33:09;1.03;;;0.70;;
20241;SDS011;10279;46.388;8.116;2022-12-29T03:35:37;1.67;;;0.87;;
20241;SDS011;10279;46.388;8.116;2022-12-29T03:38:16;0.67;;;0.67;;
20241;SDS011;10279;46.388;8.116;2022-12-29T03:40:45;1.60;;;0.60;;
20241;SDS011;10279;46.388;8.116;2022-12-29T03:43:14;0.63;;;0.60;;
20241;SDS011;10279;46.388;8.116;2022-12-29T03:45:43;1.20;;;0.60;;
20241;SDS011;10279;46.388;8.116;2022-12-29T03:48:10;0.70;;;0.70;;
20241;SDS011;10279;46.388;8.116;2022-12-29T03:50:38;1.07;;;0.87;;
20241;SDS011;10279;46.388;8.116;2022-12-29T03:53:05;0.80;;;0.63;;
20241;SDS011;10279;46.388;8.116;2022-12-29T03:55:32;1.40;;;0.80;;
20241;SDS011;10279;46.388;8.116;2022-12-29T03:58:00;0.73;;;0.70;;
20241;SDS011;10279;46.388;8.116;2022-12-29T04:00:27;0.93;;;0.77;;
20241;SDS011;10279;46.388;8.116;2022-12-29T04:02:54;1.63;;;0.93;;
20241;SDS011;10279;46.388;8.116;2022-12-29T04:05:22;1.30;;;0.97;;
20241;SDS011;10279;46.388;8.116;2022-12-29T04:07:49;0.70;;;0.70;;
20241;SDS011;10279;46.388;8.116;2022-12-29T04:10:17;1.53;;;0.90;;
20241;SDS011;10279;46.388;8.116;2022-12-29T04:12:44;0.87;;;0.77;;
20241;SDS011;10279;46.388;8.116;2022-12-29T04:15:12;0.70;;;0.67;;
20241;SDS011;10279;46.388;8.116;2022-12-29T04:17:40;0.70;;;0.67;;
20241;SDS011;10279;46.388;8.116;2022-12-29T04:20:07;1.13;;;1.00;;
20241;SDS011;10279;46.388;8.116;2022-12-29T04:23:00;0.73;;;0.70;;
20241;SDS011;10279;46.388;8.116;2022-12-29T04:25:27;0.90;;;0.90;;
20241;SDS011;10279;46.388;8.116;2022-12-29T04:27:55;1.70;;;0.80;;
20241;SDS011;10279;46.388;8.116;2022-12-29T04:30:22;1.20;;;0.93;;
20241;SDS011;10279;46.388;8.116;2022-12-29T04:32:50;0.80;;;0.77;;
20241;SDS011;10279;46.388;8.116;2022-12-29T04:35:17;0.80;;;0.80;;
20241;SDS011;10279;46.388;8.116;2022-12-29T04:37:44;0.90;;;0.90;;
20241;SDS011;10279;46.388;8.116;2022-12-29T04:40:13;0.97;;;0.80;;
20241;SDS011;10279;46.388;8.116;2022-12-29T04:42:40;1.97;;;0.70;;
20241;SDS011;10279;46.388;8.116;2022-12-29T04:45:08;1.23;;;0.90;;
20241;SDS011;10279;46.388;8.116;2022-12-29T04:47:35;1.40;;;0.73;;
20241;SDS011;10279;46.388;8.116;2022-12-29T04:50:03;0.90;;;0.77;;
20241;SDS011;10279;46.388;8.116;2022-12-29T04:52:30;0.77;;;0.77;;
20241;SDS011;10279;46.388;8.116;2022-12-29T04:54:58;0.80;;;0.73;;
20241;SDS011;10279;46.388;8.116;2022-12-29T04:57:25;0.80;;;0.63;;
20241;SDS011;10279;46.388;8.116;2022-12-29T04:59:53;0.80;;;0.80;;
20241;SDS011;10279;46.388;8.116;2022-12-29T05:02:20;1.10;;;0.70;;
20241;SDS011;10279;46.388;8.116;2022-12-29T05:04:48;0.97;;;0.63;;
20241;SDS011;10279;46.388;8.116;2022-12-29T05:07:15;0.97;;;0.80;;
20241;SDS011;10279;46.388;8.116;2022-12-29T05:09:43;0.70;;;0.70;;
20241;SDS011;10279;46.388;8.116;2022-12-29T05:12:10;1.40;;;0.83;;
20241;SDS011;10279;46.388;8.116;2022-12-29T05:14:38;1.77;;;0.70;;
20241;SDS011;10279;46.388;8.116;2022-12-29T05:17:05;1.87;;;0.90;;
20241;SDS011;10279;46.388;8.116;2022-12-29T05:19:32;1.77;;;0.83;;
20241;SDS011;10279;46.388;8.116;2022-12-29T05:22:00;1.00;;;0.90;;
20241;SDS011;10279;46.388;8.116;2022-12-29T05:24:27;1.07;;;0.80;;
20241;SDS011;10279;46.388;8.116;2022-12-29T05:26:55;1.00;;;0.87;;
20241;SDS011;10279;46.388;8.116;2022-12-29T05:29:22;0.87;;;0.87;;
20241;SDS011;10279;46.388;8.116;2022-12-29T05:31:49;2.00;;;1.00;;
20241;SDS011;10279;46.388;8.116;2022-12-29T05:34:17;1.10;;;0.90;;
20241;SDS011;10279;46.388;8.116;2022-12-29T05:36:44;1.00;;;0.90;;
20241;SDS011;10279;46.388;8.116;2022-12-29T05:39:11;1.37;;;1.27;;
20241;SDS011;10279;46.388;8.116;2022-12-29T05:41:39;1.60;;;0.83;;
20241;SDS011;10279;46.388;8.116;2022-12-29T05:44:06;1.13;;;0.83;;
20241;SDS011;10279;46.388;8.116;2022-12-29T05:46:33;1.40;;;0.87;;
20241;SDS011;10279;46.388;8.116;2022-12-29T05:49:01;1.17;;;0.80;;
20241;SDS011;10279;46.388;8.116;2022-12-29T05:51:28;2.00;;;0.93;;
20241;SDS011;10279;46.388;8.116;2022-12-29T05:53:56;5.40;;;1.13;;
20241;SDS011;10279;46.388;8.116;2022-12-29T05:56:23;0.80;;;0.73;;
20241;SDS011;10279;46.388;8.116;2022-12-29T05:58:51;1.73;;;1.37;;
20241;SDS011;10279;46.388;8.116;2022-12-29T06:01:18;1.03;;;0.80;;
20241;SDS011;10279;46.388;8.116;2022-12-29T06:03:45;1.60;;;0.87;;
20241;SDS011;10279;46.388;8.116;2022-12-29T06:06:14;0.93;;;0.83;;
20241;SDS011;10279;46.388;8.116;2022-12-29T06:08:42;1.83;;;0.93;;
20241;SDS011;10279;46.388;8.116;2022-12-29T06:11:09;0.93;;;0.83;;
20241;SDS011;10279;46.388;8.116;2022-12-29T06:13:37;1.27;;;0.90;;
20241;SDS011;10279;46.388;8.116;2022-12-29T06:16:04;3.00;;;1.10;;
20241;SDS011;10279;46.388;8.116;2022-12-29T06:18:32;1.70;;;0.80;;
20241;SDS011;10279;46.388;8.116;2022-12-29T06:21:02;0.77;;;0.70;;
20241;SDS011;10279;46.388;8.116;2022-12-29T06:23:30;1.50;;;1.00;;
20241;SDS011;10279;46.388;8.116;2022-12-29T06:25:58;1.20;;;0.80;;
20241;SDS011;10279;46.388;8.116;2022-12-29T06:28:25;1.67;;;1.17;;
20241;SDS011;10279;46.388;8.116;2022-12-29T06:30:53;1.60;;;1.13;;
20241;SDS011;10279;46.388;8.116;2022-12-29T06:33:20;1.40;;;1.10;;
20241;SDS011;10279;46.388;8.116;2022-12-29T06:35:47;2.63;;;1.03;;
20241;SDS011;10279;46.388;8.116;2022-12-29T06:38:15;3.20;;;1.13;;
20241;SDS011;10279;46.388;8.116;2022-12-29T06:40:42;2.67;;;1.30;;
20241;SDS011;10279;46.388;8.116;2022-12-29T06:43:11;1.20;;;0.80;;
20241;SDS011;10279;46.388;8.116;2022-12-29T06:45:39;0.97;;;0.70;;
20241;SDS011;10279;46.388;8.116;2022-12-29T06:48:07;2.43;;;1.10;;
20241;SDS011;10279;46.388;8.116;2022-12-29T06:50:34;0.70;;;0.70;;
20241;SDS011;10279;46.388;8.116;2022-12-29T06:53:02;1.47;;;0.90;;
20241;SDS011;10279;46.388;8.116;2022-12-29T06:55:29;2.87;;;1.20;;
20241;SDS011;10279;46.388;8.116;2022-12-29T06:57:57;2.00;;;0.90;;
20241;SDS011;10279;46.388;8.116;2022-12-29T07:00:25;2.17;;;0.97;;
20241;SDS011;10279;46.388;8.116;2022-12-29T07:02:54;1.10;;;1.00;;
20241;SDS011;10279;46.388;8.116;2022-12-29T07:05:22;1.00;;;0.90;;
20241;SDS011;10279;46.388;8.116;2022-12-29T07:07:49;1.10;;;1.00;;
20241;SDS011;10279;46.388;8.116;2022-12-29T07:10:17;1.20;;;1.10;;
20241;SDS011;10279;46.388;8.116;2022-12-29T07:12:44;3.23;;;1.20;;
20241;SDS011;10279;46.388;8.116;2022-12-29T07:15:11;1.57;;;1.10;;
20241;SDS011;10279;46.388;8.116;2022-12-29T07:17:39;1.67;;;1.20;;
20241;SDS011;10279;46.388;8.116;2022-12-29T07:20:07;2.57;;;1.37;;
20241;SDS011;10279;46.388;8.116;2022-12-29T07:22:34;2.97;;;1.33;;
20241;SDS011;10279;46.388;8.116;2022-12-29T07:25:02;2.10;;;1.33;;
20241;SDS011;10279;46.388;8.116;2022-12-29T07:27:29;2.53;;;1.33;;
20241;SDS011;10279;46.388;8.116;2022-12-29T07:29:57;1.47;;;1.30;;
20241;SDS011;10279;46.388;8.116;2022-12-29T07:32:24;1.57;;;1.30;;
20241;SDS011;10279;46.388;8.116;2022-12-29T07:34:51;1.90;;;1.63;;
20241;SDS011;10279;46.388;8.116;2022-12-29T07:37:19;2.53;;;1.60;;
20241;SDS011;10279;46.388;8.116;2022-12-29T07:39:46;1.53;;;1.30;;
20241;SDS011;10279;46.388;8.116;2022-12-29T07:42:14;1.80;;;1.37;;
20241;SDS011;10279;46.388;8.116;2022-12-29T07:44:42;1.53;;;1.40;;
20241;SDS011;10279;46.388;8.116;2022-12-29T07:47:10;1.60;;;1.40;;
20241;SDS011;10279;46.388;8.116;2022-12-29T07:49:37;2.80;;;1.57;;
20241;SDS011;10279;46.388;8.116;2022-12-29T07:52:05;2.67;;;1.93;;
20241;SDS011;10279;46.388;8.116;2022-12-29T07:54:32;6.60;;;1.90;;
20241;SDS011;10279;46.388;8.116;2022-12-29T07:56:59;1.90;;;1.50;;
20241;SDS011;10279;46.388;8.116;2022-12-29T07:59:27;2.27;;;1.63;;
20241;SDS011;10279;46.388;8.116;2022-12-29T08:01:54;3.47;;;2.10;;
20241;SDS011;10279;46.388;8.116;2022-12-29T08:04:22;2.50;;;1.87;;
20241;SDS011;10279;46.388;8.116;2022-12-29T08:06:50;2.60;;;1.90;;
20241;SDS011;10279;46.388;8.116;2022-12-29T08:09:17;2.60;;;2.07;;
20241;SDS011;10279;46.388;8.116;2022-12-29T08:11:49;1.97;;;1.67;;
20241;SDS011;10279;46.388;8.116;2022-12-29T08:14:17;6.87;;;2.03;;
20241;SDS011;10279;46.388;8.116;2022-12-29T08:16:44;3.20;;;2.03;;
20241;SDS011;10279;46.388;8.116;2022-12-29T08:19:12;5.23;;;2.07;;
20241;SDS011;10279;46.388;8.116;2022-12-29T08:21:39;5.20;;;1.87;;
20241;SDS011;10279;46.388;8.116;2022-12-29T08:24:07;2.30;;;1.57;;
20241;SDS011;10279;46.388;8.116;2022-12-29T08:26:35;3.33;;;1.67;;
20241;SDS011;10279;46.388;8.116;2022-12-29T08:29:02;3.70;;;1.80;;
20241;SDS011;10279;46.388;8.116;2022-12-29T08:31:29;3.20;;;2.00;;
20241;SDS011;10279;46.388;8.116;2022-12-29T08:33:57;3.67;;;2.37;;
20241;SDS011;10279;46.388;8.116;2022-12-29T08:36:26;4.30;;;2.40;;
20241;SDS011;10279;46.388;8.116;2022-12-29T08:38:53;4.33;;;2.93;;
20241;SDS011;10279;46.388;8.116;2022-12-29T08:41:20;5.00;;;2.50;;
20241;SDS011;10279;46.388;8.116;2022-12-29T08:43:48;3.23;;;1.80;;
20241;SDS011;10279;46.388;8.116;2022-12-29T08:46:16;4.57;;;2.60;;
20241;SDS011;10279;46.388;8.116;2022-12-29T08:48:44;5.40;;;2.70;;
20241;SDS011;10279;46.388;8.116;2022-12-29T08:51:11;2.17;;;1.90;;
20241;SDS011;10279;46.388;8.116;2022-12-29T08:53:39;4.80;;;3.60;;
20241;SDS011;10279;46.388;8.116;2022-12-29T08:56:08;4.40;;;2.60;;
20241;SDS011;10279;46.388;8.116;2022-12-29T08:58:36;4.13;;;2.47;;
20241;SDS011;10279;46.388;8.116;2022-12-29T09:01:03;3.57;;;2.33;;
20241;SDS011;10279;46.388;8.116;2022-12-29T09:03:30;3.30;;;2.10;;
20241;SDS011;10279;46.388;8.116;2022-12-29T09:06:18;3.50;;;2.23;;
20241;SDS011;10279;46.388;8.116;2022-12-29T09:08:45;4.57;;;2.13;;
20241;SDS011;10279;46.388;8.116;2022-12-29T09:11:14;2.27;;;1.77;;
20241;SDS011;10279;46.388;8.116;2022-12-29T09:13:42;3.87;;;2.13;;
20241;SDS011;10279;46.388;8.116;2022-12-29T09:16:09;3.37;;;2.33;;
20241;SDS011;10279;46.388;8.116;2022-12-29T09:18:37;4.37;;;2.57;;
20241;SDS011;10279;46.388;8.116;2022-12-29T09:21:05;2.33;;;1.80;;
20241;SDS011;10279;46.388;8.116;2022-12-29T09:23:33;3.73;;;2.37;;
20241;SDS011;10279;46.388;8.116;2022-12-29T09:26:01;2.80;;;1.97;;
20241;SDS011;10279;46.388;8.116;2022-12-29T09:28:29;3.87;;;1.87;;
20241;SDS011;10279;46.388;8.116;2022-12-29T09:30:57;3.97;;;1.80;;
20241;SDS011;10279;46.388;8.116;2022-12-29T09:33:25;7.10;;;2.30;;
20241;SDS011;10279;46.388;8.116;2022-12-29T09:35:54;2.67;;;2.17;;
20241;SDS011;10279;46.388;8.116;2022-12-29T09:38:22;3.93;;;2.20;;
20241;SDS011;10279;46.388;8.116;2022-12-29T09:40:53;2.97;;;2.20;;
20241;SDS011;10279;46.388;8.116;2022-12-29T09:46:27;5.63;;;3.10;;
20241;SDS011;10279;46.388;8.116;2022-12-29T09:51:41;5.73;;;3.60;;
20241;SDS011;10279;46.388;8.116;2022-12-29T09:54:31;44.00;;;21.60;;
20241;SDS011;10279;46.388;8.116;2022-12-29T09:56:59;57.27;;;28.37;;
20241;SDS011;10279;46.388;8.116;2022-12-29T09:59:38;11.17;;;5.70;;
20241;SDS011;10279;46.388;8.116;2022-12-29T10:04:53;10.57;;;2.30;;
20241;SDS011;10279;46.388;8.116;2022-12-29T10:10:24;4.67;;;1.83;;
20241;SDS011;10279;46.388;8.116;2022-12-29T10:25:26;2.27;;;2.07;;
20241;SDS011;10279;46.388;8.116;2022-12-29T10:27:59;3.30;;;2.10;;
20241;SDS011;10279;46.388;8.116;2022-12-29T10:30:27;5.93;;;2.47;;
20241;SDS011;10279;46.388;8.116;2022-12-29T10:32:58;6.03;;;2.63;;
20241;SDS011;10279;46.388;8.116;2022-12-29T10:35:35;2.50;;;2.03;;
20241;SDS011;10279;46.388;8.116;2022-12-29T10:38:17;3.23;;;1.70;;
20241;SDS011;10279;46.388;8.116;2022-12-29T10:43:22;2.87;;;1.80;;
20241;SDS011;10279;46.388;8.116;2022-12-29T10:45:52;2.60;;;1.67;;
20241;SDS011;10279;46.388;8.116;2022-12-29T10:48:21;3.47;;;1.90;;
20241;SDS011;10279;46.388;8.116;2022-12-29T10:50:57;2.93;;;1.83;;
20241;SDS011;10279;46.388;8.116;2022-12-29T10:53:30;3.43;;;1.83;;
20241;SDS011;10279;46.388;8.116;2022-12-29T10:56:00;2.20;;;1.60;;
20241;SDS011;10279;46.388;8.116;2022-12-29T10:58:28;2.30;;;1.57;;
20241;SDS011;10279;46.388;8.116;2022-12-29T11:00:57;4.17;;;1.73;;
20241;SDS011;10279;46.388;8.116;2022-12-29T11:08:33;2.23;;;1.57;;
20241;SDS011;10279;46.388;8.116;2022-12-29T11:11:03;6.30;;;2.10;;
20241;SDS011;10279;46.388;8.116;2022-12-29T11:13:32;3.63;;;1.60;;
20241;SDS011;10279;46.388;8.116;2022-12-29T11:16:04;2.30;;;1.67;;
20241;SDS011;10279;46.388;8.116;2022-12-29T11:18:33;3.83;;;1.53;;
20241;SDS011;10279;46.388;8.116;2022-12-29T11:21:07;3.33;;;1.40;;
20241;SDS011;10279;46.388;8.116;2022-12-29T11:26:27;1.83;;;1.27;;
20241;SDS011;10279;46.388;8.116;2022-12-29T11:29:04;2.20;;;1.23;;
20241;SDS011;10279;46.388;8.116;2022-12-29T11:31:39;2.20;;;1.60;;
20241;SDS011;10279;46.388;8.116;2022-12-29T11:34:07;2.97;;;1.47;;
20241;SDS011;10279;46.388;8.116;2022-12-29T11:36:35;2.40;;;1.70;;
20241;SDS011;10279;46.388;8.116;2022-12-29T11:39:03;4.80;;;1.93;;
20241;SDS011;10279;46.388;8.116;2022-12-29T11:41:38;2.13;;;1.90;;
20241;SDS011;10279;46.388;8.116;2022-12-29T11:44:06;4.13;;;2.00;;
20241;SDS011;10279;46.388;8.116;2022-12-29T11:46:39;3.30;;;1.40;;
20241;SDS011;10279;46.388;8.116;2022-12-29T11:49:08;3.03;;;1.83;;
20241;SDS011;10279;46.388;8.116;2022-12-29T11:51:42;3.00;;;1.40;;
20241;SDS011;10279;46.388;8.116;2022-12-29T11:54:13;3.93;;;2.03;;
20241;SDS011;10279;46.388;8.116;2022-12-29T11:56:43;4.07;;;1.47;;
20241;SDS011;10279;46.388;8.116;2022-12-29T12:01:56;2.60;;;1.60;;
20241;SDS011;10279;46.388;8.116;2022-12-29T12:04:26;2.17;;;1.70;;
20241;SDS011;10279;46.388;8.116;2022-12-29T12:09:26;2.20;;;1.50;;
20241;SDS011;10279;46.388;8.116;2022-12-29T12:11:56;4.83;;;1.83;;
20241;SDS011;10279;46.388;8.116;2022-12-29T12:14:29;3.70;;;1.67;;
20241;SDS011;10279;46.388;8.116;2022-12-29T12:16:59;3.13;;;1.63;;
20241;SDS011;10279;46.388;8.116;2022-12-29T12:19:37;2.93;;;1.50;;
20241;SDS011;10279;46.388;8.116;2022-12-29T12:24:53;2.73;;;1.70;;
20241;SDS011;10279;46.388;8.116;2022-12-29T12:29:52;6.10;;;1.80;;
20241;SDS011;10279;46.388;8.116;2022-12-29T12:32:29;3.03;;;1.53;;
20241;SDS011;10279;46.388;8.116;2022-12-29T12:35:04;4.03;;;1.53;;
20241;SDS011;10279;46.388;8.116;2022-12-29T12:45:21;2.90;;;1.20;;
20241;SDS011;10279;46.388;8.116;2022-12-29T12:53:24;1.67;;;1.20;;
20241;SDS011;10279;46.388;8.116;2022-12-29T13:12:00;2.10;;;1.20;;
20241;SDS011;10279;46.388;8.116;2022-12-29T13:17:11;1.83;;;1.30;;
20241;SDS011;10279;46.388;8.116;2022-12-29T13:35:57;2.17;;;1.43;;
20241;SDS011;10279;46.388;8.116;2022-12-29T13:38:28;2.03;;;1.63;;
20241;SDS011;10279;46.388;8.116;2022-12-29T13:41:00;2.90;;;1.50;;
20241;SDS011;10279;46.388;8.116;2022-12-29T13:43:28;2.90;;;1.20;;
20241;SDS011;10279;46.388;8.116;2022-12-29T13:46:00;2.50;;;1.40;;
20241;SDS011;10279;46.388;8.116;2022-12-29T13:48:34;3.03;;;2.00;;
20241;SDS011;10279;46.388;8.116;2022-12-29T13:51:03;5.33;;;2.03;;
20241;SDS011;10279;46.388;8.116;2022-12-29T13:56:18;2.20;;;1.80;;
20241;SDS011;10279;46.388;8.116;2022-12-29T13:58:57;1.60;;;1.27;;
20241;SDS011;10279;46.388;8.116;2022-12-29T14:04:13;2.17;;;0.90;;
20241;SDS011;10279;46.388;8.116;2022-12-29T14:06:41;2.33;;;0.90;;
20241;SDS011;10279;46.388;8.116;2022-12-29T14:09:28;2.90;;;1.07;;
20241;SDS011;10279;46.388;8.116;2022-12-29T14:12:00;1.43;;;1.07;;
20241;SDS011;10279;46.388;8.116;2022-12-29T14:14:29;2.60;;;0.77;;
20241;SDS011;10279;46.388;8.116;2022-12-29T14:17:19;2.53;;;1.00;;
20241;SDS011;10279;46.388;8.116;2022-12-29T14:19:45;3.60;;;1.20;;
20241;SDS011;10279;46.388;8.116;2022-12-29T14:22:12;1.33;;;1.20;;
20241;SDS011;10279;46.388;8.116;2022-12-29T14:24:41;1.60;;;1.40;;
20241;SDS011;10279;46.388;8.116;2022-12-29T14:34:56;2.33;;;1.50;;
20241;SDS011;10279;46.388;8.116;2022-12-29T14:37:25;2.10;;;1.30;;
20241;SDS011;10279;46.388;8.116;2022-12-29T14:42:39;2.10;;;1.00;;
20241;SDS011;10279;46.388;8.116;2022-12-29T14:45:29;3.10;;;1.03;;
20241;SDS011;10279;46.388;8.116;2022-12-29T14:47:55;2.57;;;1.10;;
20241;SDS011;10279;46.388;8.116;2022-12-29T14:50:25;4.30;;;1.03;;
20241;SDS011;10279;46.388;8.116;2022-12-29T14:53:03;6.30;;;1.10;;
20241;SDS011;10279;46.388;8.116;2022-12-29T14:55:38;2.40;;;1.10;;
20241;SDS011;10279;46.388;8.116;2022-12-29T15:00:53;3.40;;;1.20;;
20241;SDS011;10279;46.388;8.116;2022-12-29T15:06:21;1.43;;;1.00;;
20241;SDS011;10279;46.388;8.116;2022-12-29T15:11:21;1.10;;;1.00;;
20241;SDS011;10279;46.388;8.116;2022-12-29T15:13:49;2.70;;;1.20;;
20241;SDS011;10279;46.388;8.116;2022-12-29T15:16:32;1.13;;;0.97;;
20241;SDS011;10279;46.388;8.116;2022-12-29T15:19:02;2.70;;;1.00;;
20241;SDS011;10279;46.388;8.116;2022-12-29T15:21:32;1.60;;;0.90;;
20241;SDS011;10279;46.388;8.116;2022-12-29T15:24:00;2.40;;;1.27;;
20241;SDS011;10279;46.388;8.116;2022-12-29T15:26:39;2.63;;;1.10;;
20241;SDS011;10279;46.388;8.116;2022-12-29T15:31:53;4.40;;;1.57;;
20241;SDS011;10279;46.388;8.116;2022-12-29T15:34:21;2.77;;;1.40;;
20241;SDS011;10279;46.388;8.116;2022-12-29T15:36:49;1.40;;;0.90;;
20241;SDS011;10279;46.388;8.116;2022-12-29T15:39:29;3.90;;;1.63;;
20241;SDS011;10279;46.388;8.116;2022-12-29T15:42:06;1.80;;;1.50;;
20241;SDS011;10279;46.388;8.116;2022-12-29T15:44:38;3.43;;;1.60;;
20241;SDS011;10279;46.388;8.116;2022-12-29T15:47:11;2.00;;;1.50;;
20241;SDS011;10279;46.388;8.116;2022-12-29T15:49:41;1.40;;;1.10;;
20241;SDS011;10279;46.388;8.116;2022-12-29T15:52:09;3.00;;;1.77;;
20241;SDS011;10279;46.388;8.116;2022-12-29T15:54:37;4.43;;;1.73;;
20241;SDS011;10279;46.388;8.116;2022-12-29T15:57:09;3.70;;;2.60;;
20241;SDS011;10279;46.388;8.116;2022-12-29T15:59:45;1.70;;;1.43;;
20241;SDS011;10279;46.388;8.116;2022-12-29T16:02:14;2.93;;;1.20;;
20241;SDS011;10279;46.388;8.116;2022-12-29T16:04:42;3.03;;;1.10;;
20241;SDS011;10279;46.388;8.116;2022-12-29T16:07:30;1.00;;;0.90;;
20241;SDS011;10279;46.388;8.116;2022-12-29T16:10:21;1.93;;;1.40;;
20241;SDS011;10279;46.388;8.116;2022-12-29T16:12:48;2.97;;;1.90;;
20241;SDS011;10279;46.388;8.116;2022-12-29T16:15:16;3.00;;;1.97;;
20241;SDS011;10279;46.388;8.116;2022-12-29T16:17:46;3.13;;;2.37;;
20241;SDS011;10279;46.388;8.116;2022-12-29T16:20:19;2.67;;;2.30;;
20241;SDS011;10279;46.388;8.116;2022-12-29T16:22:47;3.97;;;2.30;;
20241;SDS011;10279;46.388;8.116;2022-12-29T16:25:19;3.83;;;2.10;;
20241;SDS011;10279;46.388;8.116;2022-12-29T16:27:49;5.43;;;2.50;;
20241;SDS011;10279;46.388;8.116;2022-12-29T16:30:22;5.27;;;2.00;;
20241;SDS011;10279;46.388;8.116;2022-12-29T16:32:59;4.07;;;1.83;;
20241;SDS011;10279;46.388;8.116;2022-12-29T16:35:28;3.80;;;2.37;;
20241;SDS011;10279;46.388;8.116;2022-12-29T16:38:15;3.53;;;2.07;;
20241;SDS011;10279;46.388;8.116;2022-12-29T16:40:52;5.90;;;3.00;;
20241;SDS011;10279;46.388;8.116;2022-12-29T16:43:29;4.30;;;2.93;;
20241;SDS011;10279;46.388;8.116;2022-12-29T16:48:29;6.40;;;3.33;;
20241;SDS011;10279;46.388;8.116;2022-12-29T16:51:12;4.10;;;2.80;;
20241;SDS011;10279;46.388;8.116;2022-12-29T16:54:01;6.70;;;2.20;;
20241;SDS011;10279;46.388;8.116;2022-12-29T16:56:31;3.67;;;2.00;;
20241;SDS011;10279;46.388;8.116;2022-12-29T17:01:30;3.10;;;1.80;;
20241;SDS011;10279;46.388;8.116;2022-12-29T17:03:58;2.53;;;2.13;;
20241;SDS011;10279;46.388;8.116;2022-12-29T17:06:26;3.73;;;2.10;;
20241;SDS011;10279;46.388;8.116;2022-12-29T17:08:57;3.90;;;2.40;;
20241;SDS011;10279;46.388;8.116;2022-12-29T17:11:26;6.20;;;2.60;;
20241;SDS011;10279;46.388;8.116;2022-12-29T17:16:47;6.27;;;2.80;;
20241;SDS011;10279;46.388;8.116;2022-12-29T17:19:19;4.27;;;2.93;;
20241;SDS011;10279;46.388;8.116;2022-12-29T17:21:47;8.90;;;3.47;;
20241;SDS011;10279;46.388;8.116;2022-12-29T17:24:15;6.60;;;3.60;;
20241;SDS011;10279;46.388;8.116;2022-12-29T17:26:48;4.47;;;2.47;;
20241;SDS011;10279;46.388;8.116;2022-12-29T17:29:18;1.50;;;1.40;;
20241;SDS011;10279;46.388;8.116;2022-12-29T17:31:46;2.37;;;1.63;;
20241;SDS011;10279;46.388;8.116;2022-12-29T17:34:14;6.30;;;2.93;;
20241;SDS011;10279;46.388;8.116;2022-12-29T17:36:41;5.40;;;3.17;;
20241;SDS011;10279;46.388;8.116;2022-12-29T17:39:09;5.70;;;2.70;;
20241;SDS011;10279;46.388;8.116;2022-12-29T17:41:36;5.63;;;2.57;;
20241;SDS011;10279;46.388;8.116;2022-12-29T17:44:04;5.00;;;2.10;;
20241;SDS011;10279;46.388;8.116;2022-12-29T17:46:33;7.67;;;4.03;;
20241;SDS011;10279;46.388;8.116;2022-12-29T17:49:00;12.60;;;4.30;;
20241;SDS011;10279;46.388;8.116;2022-12-29T17:51:29;5.70;;;3.20;;
20241;SDS011;10279;46.388;8.116;2022-12-29T17:53:56;6.13;;;3.70;;